createdAt,value
2023-03-01T00:01:29.478Z,1.70
2023-03-01T00:04:00.235Z,1.70
2023-03-01T00:06:28.414Z,1.70
2023-03-01T00:08:55.692Z,1.70
2023-03-01T00:11:25.439Z,1.70
2023-03-01T00:13:54.793Z,1.70
2023-03-01T00:16:25.482Z,1.70
2023-03-01T00:18:52.641Z,1.70
2023-03-01T00:21:22.252Z,1.70
2023-03-01T00:23:50.036Z,1.70
2023-03-01T00:26:18.916Z,1.70
2023-03-01T00:28:46.732Z,1.70
2023-03-01T00:31:21.649Z,1.70
2023-03-01T00:33:48.598Z,1.60
2023-03-01T00:36:17.045Z,1.70
2023-03-01T00:38:46.085Z,1.70
2023-03-01T00:41:15.812Z,1.80
2023-03-01T00:43:43.349Z,1.80
2023-03-01T00:46:16.302Z,1.80
2023-03-01T00:48:43.795Z,1.80
2023-03-01T00:51:20.398Z,1.70
2023-03-01T00:53:48.160Z,1.70
2023-03-01T00:56:16.132Z,1.70
2023-03-01T00:58:43.430Z,1.70
2023-03-01T01:01:20.542Z,1.70
2023-03-01T01:03:49.150Z,1.70
2023-03-01T01:06:21.665Z,1.70
2023-03-01T01:08:49.188Z,1.70
2023-03-01T01:11:16.450Z,1.60
2023-03-01T01:13:45.273Z,1.70
2023-03-01T01:16:12.805Z,1.70
2023-03-01T01:18:39.888Z,1.70
2023-03-01T01:21:09.742Z,1.70
2023-03-01T01:23:38.027Z,1.70
2023-03-01T01:26:07.386Z,1.70
2023-03-01T01:28:34.506Z,1.80
2023-03-01T01:31:01.496Z,1.70
2023-03-01T01:33:29.014Z,1.70
2023-03-01T01:35:56.078Z,1.80
2023-03-01T01:38:23.619Z,1.80
2023-03-01T01:40:51.426Z,1.80
2023-03-01T01:43:29.513Z,1.80
2023-03-01T01:46:17.067Z,1.80
2023-03-01T01:48:51.128Z,1.90
2023-03-01T01:51:25.808Z,1.80
2023-03-01T01:53:59.594Z,1.80
2023-03-01T01:56:29.775Z,1.80
2023-03-01T01:58:57.309Z,1.80
2023-03-01T02:01:24.394Z,1.80
2023-03-01T02:03:51.964Z,1.80
2023-03-01T02:06:33.689Z,1.80
2023-03-01T02:09:05.729Z,1.70
2023-03-01T02:11:33.978Z,1.80
2023-03-01T02:14:01.450Z,1.70
2023-03-01T02:16:28.474Z,1.80
2023-03-01T02:18:55.827Z,1.70
2023-03-01T02:21:51.906Z,1.70
2023-03-01T02:24:42.088Z,1.80
2023-03-01T02:27:09.649Z,1.80
2023-03-01T02:29:36.895Z,1.70
2023-03-01T02:32:05.746Z,1.70
2023-03-01T02:34:33.532Z,1.60
2023-03-01T02:37:17.397Z,1.60
2023-03-01T02:39:49.680Z,1.60
2023-03-01T02:42:22.476Z,1.60
2023-03-01T02:44:50.869Z,1.60
2023-03-01T02:47:17.903Z,1.60
2023-03-01T02:49:44.803Z,1.60
2023-03-01T02:52:54.644Z,1.60
2023-03-01T02:55:21.699Z,1.70
2023-03-01T02:57:53.117Z,1.60
2023-03-01T03:00:23.760Z,1.70
2023-03-01T03:02:53.561Z,1.70
2023-03-01T03:05:24.018Z,1.70
2023-03-01T03:07:51.496Z,1.70
2023-03-01T03:10:30.334Z,1.80
2023-03-01T03:13:00.528Z,1.70
2023-03-01T03:15:28.468Z,1.80
2023-03-01T03:17:56.181Z,1.80
2023-03-01T03:20:25.909Z,1.80
2023-03-01T03:22:55.267Z,1.80
2023-03-01T03:25:23.796Z,1.80
2023-03-01T03:27:57.745Z,1.80
2023-03-01T03:30:27.849Z,1.90
2023-03-01T03:32:55.189Z,1.90
2023-03-01T03:35:25.436Z,1.90
2023-03-01T03:38:05.147Z,1.90
2023-03-01T03:40:40.637Z,1.90
2023-03-01T03:43:13.855Z,2.00
2023-03-01T03:45:40.788Z,2.00
2023-03-01T03:48:11.664Z,2.00
2023-03-01T03:50:40.082Z,1.90
2023-03-01T03:53:09.895Z,2.00
2023-03-01T03:55:40.239Z,2.00
2023-03-01T03:58:09.383Z,2.00
2023-03-01T04:00:42.731Z,2.00
2023-03-01T04:03:10.980Z,2.00
2023-03-01T04:05:39.329Z,2.00
2023-03-01T04:08:10.856Z,2.10
2023-03-01T04:10:40.859Z,2.10
2023-03-01T04:13:11.563Z,2.00
2023-03-01T04:15:38.660Z,2.10
2023-03-01T04:18:06.314Z,2.10
2023-03-01T04:20:35.868Z,2.10
2023-03-01T04:23:12.170Z,2.10
2023-03-01T04:25:46.294Z,2.10
2023-03-01T04:28:13.302Z,2.10
2023-03-01T04:30:43.005Z,2.10
2023-03-01T04:33:11.432Z,2.10
2023-03-01T04:35:39.669Z,2.20
2023-03-01T04:38:07.219Z,2.10
2023-03-01T04:40:34.746Z,2.20
2023-03-01T04:43:02.007Z,2.20
2023-03-01T04:45:28.981Z,2.20
2023-03-01T04:47:56.170Z,2.20
2023-03-01T04:50:24.573Z,2.20
2023-03-01T04:52:52.644Z,2.20
2023-03-01T04:55:19.730Z,2.20
2023-03-01T04:57:46.593Z,2.20
2023-03-01T05:00:21.568Z,2.20
2023-03-01T05:02:49.455Z,2.20
2023-03-01T05:05:16.615Z,2.20
2023-03-01T05:07:43.544Z,2.20
2023-03-01T05:10:11.021Z,2.20
2023-03-01T05:12:38.481Z,2.20
2023-03-01T05:15:08.166Z,2.20
2023-03-01T05:17:35.732Z,2.20
2023-03-01T05:20:06.827Z,2.20
2023-03-01T05:22:33.861Z,2.20
2023-03-01T05:25:00.744Z,2.20
2023-03-01T05:27:27.844Z,2.20
2023-03-01T05:29:54.798Z,2.20
2023-03-01T05:32:21.849Z,2.20
2023-03-01T05:34:48.776Z,2.20
2023-03-01T05:37:15.836Z,2.20
2023-03-01T05:39:42.999Z,2.20
2023-03-01T05:42:11.984Z,2.20
2023-03-01T05:44:39.350Z,2.30
2023-03-01T05:47:06.352Z,2.20
2023-03-01T05:49:33.340Z,2.20
2023-03-01T05:52:00.262Z,2.30
2023-03-01T05:54:27.179Z,2.30
2023-03-01T05:56:54.066Z,2.30
2023-03-01T05:59:21.009Z,2.30
2023-03-01T06:01:47.908Z,2.30
2023-03-01T06:04:14.801Z,2.40
2023-03-01T06:06:41.796Z,2.30
2023-03-01T06:09:10.361Z,2.40
2023-03-01T06:11:38.156Z,2.30
2023-03-01T06:14:07.552Z,2.30
2023-03-01T06:16:34.423Z,2.40
2023-03-01T06:19:01.329Z,2.40
2023-03-01T06:21:28.277Z,2.40
2023-03-01T06:23:55.290Z,2.40
2023-03-01T06:26:22.213Z,2.40
2023-03-01T06:28:49.147Z,2.40
2023-03-01T06:31:16.381Z,2.40
2023-03-01T06:33:43.257Z,2.50
2023-03-01T06:36:11.172Z,2.50
2023-03-01T06:38:38.190Z,2.60
2023-03-01T06:41:05.282Z,2.60
2023-03-01T06:43:32.222Z,2.60
2023-03-01T06:45:59.118Z,2.60
2023-03-01T06:48:26.072Z,2.60
2023-03-01T06:50:53.066Z,2.60
2023-03-01T06:53:20.071Z,2.70
2023-03-01T06:55:46.939Z,2.70
2023-03-01T06:58:13.932Z,2.70
2023-03-01T07:00:42.007Z,2.80
2023-03-01T07:03:10.109Z,2.80
2023-03-01T07:05:37.092Z,2.90
2023-03-01T07:08:04.093Z,3.00
2023-03-01T07:10:31.076Z,2.90
2023-03-01T07:12:59.457Z,2.90
2023-03-01T07:15:27.478Z,3.00
2023-03-01T07:17:55.008Z,3.10
2023-03-01T07:20:26.670Z,3.20
2023-03-01T07:22:54.713Z,3.30
2023-03-01T07:25:21.921Z,3.50
2023-03-01T07:27:55.428Z,3.40
2023-03-01T07:30:23.101Z,3.50
2023-03-01T07:32:50.317Z,3.70
2023-03-01T07:35:17.309Z,4.00
2023-03-01T07:37:44.604Z,4.00
2023-03-01T07:40:12.406Z,4.10
2023-03-01T07:42:39.424Z,4.10
2023-03-01T07:45:07.418Z,4.00
2023-03-01T07:47:34.357Z,4.10
2023-03-01T07:50:02.294Z,4.00
2023-03-01T07:52:29.294Z,3.90
2023-03-01T07:54:56.184Z,4.10
2023-03-01T07:57:23.096Z,4.00
2023-03-01T07:59:50.073Z,4.00
2023-03-01T08:02:16.952Z,4.10
2023-03-01T08:04:44.126Z,4.60
2023-03-01T08:07:10.978Z,5.00
2023-03-01T08:09:38.682Z,5.70
2023-03-01T08:12:08.913Z,6.30
2023-03-01T08:14:36.155Z,6.50
2023-03-01T08:17:04.238Z,6.40
2023-03-01T08:19:31.741Z,6.70
2023-03-01T08:21:59.361Z,6.30
2023-03-01T08:24:26.566Z,6.20
2023-03-01T08:26:53.585Z,7.10
2023-03-01T08:29:20.825Z,7.20
2023-03-01T08:31:48.159Z,7.30
2023-03-01T08:34:17.629Z,7.70
2023-03-01T08:36:46.838Z,8.70
2023-03-01T08:39:16.760Z,8.30
2023-03-01T08:41:45.940Z,8.20
2023-03-01T08:44:17.806Z,8.80
2023-03-01T08:46:46.606Z,9.20
2023-03-01T08:49:15.951Z,8.80
2023-03-01T08:51:44.063Z,8.70
2023-03-01T08:54:13.714Z,9.50
2023-03-01T08:56:40.709Z,9.10
2023-03-01T08:59:08.225Z,9.80
2023-03-01T09:01:35.396Z,9.90
2023-03-01T09:04:02.502Z,10.20
2023-03-01T09:06:33.116Z,10.50
2023-03-01T09:09:01.097Z,11.60
2023-03-01T09:11:29.375Z,11.60
2023-03-01T09:13:56.524Z,11.50
2023-03-01T09:16:25.243Z,12.10
2023-03-01T09:18:54.295Z,12.70
2023-03-01T09:21:39.088Z,12.10
2023-03-01T09:24:07.869Z,11.20
2023-03-01T09:26:34.872Z,11.10
2023-03-01T09:29:01.899Z,10.90
2023-03-01T09:31:28.898Z,10.70
2023-03-01T09:33:56.362Z,10.40
2023-03-01T09:36:26.477Z,10.50
2023-03-01T09:38:54.372Z,11.80
2023-03-01T09:41:47.501Z,12.20
2023-03-01T09:44:20.574Z,12.10
2023-03-01T09:46:47.981Z,12.10
2023-03-01T09:49:31.633Z,11.80
2023-03-01T09:52:25.210Z,11.50
2023-03-01T09:54:58.180Z,11.30
2023-03-01T09:57:42.623Z,12.00
2023-03-01T10:00:34.137Z,12.10
2023-03-01T10:03:26.353Z,12.50
2023-03-01T10:06:02.842Z,12.80
2023-03-01T10:08:47.928Z,11.90
2023-03-01T10:11:29.489Z,12.00
2023-03-01T10:14:16.773Z,12.80
2023-03-01T10:17:02.236Z,13.00
2023-03-01T10:19:37.554Z,13.20
2023-03-01T10:22:23.607Z,15.50
2023-03-01T10:24:52.890Z,13.20
2023-03-01T10:27:26.884Z,13.10
2023-03-01T10:30:36.592Z,13.20
2023-03-01T10:33:05.186Z,13.10
2023-03-01T10:35:34.887Z,15.40
2023-03-01T10:38:10.964Z,14.90
2023-03-01T10:41:02.334Z,14.00
2023-03-01T10:43:48.425Z,14.10
2023-03-01T10:46:34.190Z,13.50
2023-03-01T10:49:21.243Z,14.00
2023-03-01T10:51:51.031Z,13.90
2023-03-01T10:54:24.144Z,13.70
2023-03-01T10:56:54.910Z,13.70
2023-03-01T10:59:39.404Z,14.30
2023-03-01T11:02:26.052Z,14.90
2023-03-01T11:05:14.659Z,14.60
2023-03-01T11:07:56.149Z,14.30
2023-03-01T11:10:34.662Z,13.80
2023-03-01T11:13:18.283Z,13.00
2023-03-01T11:16:04.306Z,12.60
2023-03-01T11:18:46.455Z,12.50
2023-03-01T11:21:17.150Z,12.60
2023-03-01T11:23:47.409Z,13.80
2023-03-01T11:26:15.728Z,15.40
2023-03-01T11:28:59.631Z,14.60
2023-03-01T11:31:27.591Z,14.10
2023-03-01T11:34:06.383Z,15.20
2023-03-01T11:36:49.654Z,15.10
2023-03-01T11:39:50.337Z,15.00
2023-03-01T11:42:41.635Z,14.50
2023-03-01T11:45:11.166Z,14.60
2023-03-01T11:48:07.230Z,14.10
2023-03-01T11:50:49.418Z,13.60
2023-03-01T11:53:25.628Z,13.60
2023-03-01T11:56:37.200Z,12.90
2023-03-01T11:59:46.406Z,14.90
2023-03-01T12:02:31.275Z,15.50
2023-03-01T12:05:07.432Z,14.40
2023-03-01T12:08:02.468Z,14.80
2023-03-01T12:10:36.968Z,15.30
2023-03-01T12:13:03.875Z,14.90
2023-03-01T12:15:52.771Z,14.50
2023-03-01T12:18:45.830Z,14.70
2023-03-01T12:21:45.702Z,14.20
2023-03-01T12:24:21.489Z,12.10
2023-03-01T12:27:03.374Z,11.20
2023-03-01T12:29:42.550Z,11.00
2023-03-01T12:32:40.875Z,10.80
2023-03-01T12:35:56.190Z,9.80
2023-03-01T12:38:43.256Z,8.80
2023-03-01T12:41:36.046Z,8.70
2023-03-01T12:44:25.943Z,7.90
2023-03-01T12:46:58.863Z,7.50
2023-03-01T12:49:50.959Z,7.30
2023-03-01T12:52:27.356Z,7.40
2023-03-01T12:54:57.579Z,7.10
2023-03-01T12:57:46.269Z,7.00
2023-03-01T13:00:38.836Z,7.30
2023-03-01T13:03:05.719Z,7.10
2023-03-01T13:05:53.985Z,7.20
2023-03-01T13:08:50.394Z,7.40
2023-03-01T13:11:22.782Z,7.40
2023-03-01T13:13:50.727Z,7.00
2023-03-01T13:16:44.008Z,6.70
2023-03-01T13:19:21.579Z,6.50
2023-03-01T13:21:51.221Z,6.40
2023-03-01T13:24:38.368Z,6.60
2023-03-01T13:27:08.390Z,6.40
2023-03-01T13:29:48.770Z,6.30
2023-03-01T13:32:45.048Z,6.10
2023-03-01T13:35:21.223Z,5.90
2023-03-01T13:37:48.845Z,6.00
2023-03-01T13:40:21.866Z,5.70
2023-03-01T13:43:06.238Z,5.60
2023-03-01T13:45:41.783Z,5.60
2023-03-01T13:48:26.091Z,5.50
2023-03-01T13:51:00.027Z,5.50
2023-03-01T13:53:30.869Z,5.50
2023-03-01T13:56:07.947Z,5.30
2023-03-01T13:58:57.749Z,5.40
2023-03-01T14:01:32.504Z,5.20
2023-03-01T14:04:00.585Z,5.00
2023-03-01T14:06:33.407Z,5.00
2023-03-01T14:09:28.389Z,4.80
2023-03-01T14:12:22.909Z,4.90
2023-03-01T14:14:59.192Z,4.80
2023-03-01T14:17:26.073Z,4.80
2023-03-01T14:20:02.707Z,4.90
2023-03-01T14:22:34.262Z,4.90
2023-03-01T14:25:06.021Z,4.90
2023-03-01T14:27:43.008Z,4.90
2023-03-01T14:30:29.315Z,4.90
2023-03-01T14:33:02.389Z,4.90
2023-03-01T14:35:35.423Z,4.90
2023-03-01T14:38:03.012Z,4.80
2023-03-01T14:40:40.642Z,4.70
2023-03-01T14:43:13.392Z,4.80
2023-03-01T14:45:40.813Z,4.70
2023-03-01T14:48:16.091Z,4.70
2023-03-01T14:50:45.107Z,4.60
2023-03-01T14:53:34.118Z,4.60
2023-03-01T14:56:06.072Z,4.60
2023-03-01T14:58:35.155Z,4.50
2023-03-01T15:01:04.986Z,4.50
2023-03-01T15:03:35.652Z,4.40
2023-03-01T15:06:03.421Z,4.40
2023-03-01T15:08:34.157Z,4.40
2023-03-01T15:11:28.532Z,4.40
2023-03-01T15:13:55.837Z,4.30
2023-03-01T15:16:32.409Z,4.30
2023-03-01T15:19:02.854Z,4.20
2023-03-01T15:21:36.050Z,4.20
2023-03-01T15:24:29.991Z,4.20
2023-03-01T15:27:08.045Z,4.20
2023-03-01T15:29:41.538Z,4.20
2023-03-01T15:32:34.060Z,4.10
2023-03-01T15:35:02.729Z,4.10
2023-03-01T15:37:49.588Z,4.00
2023-03-01T15:40:24.926Z,4.00
2023-03-01T15:42:52.804Z,4.00
2023-03-01T15:45:28.258Z,4.10
2023-03-01T15:48:05.534Z,4.10
2023-03-01T15:50:35.711Z,4.10
2023-03-01T15:53:09.950Z,4.00
2023-03-01T15:55:36.893Z,4.00
2023-03-01T15:58:24.912Z,4.00
2023-03-01T16:01:02.082Z,4.00
2023-03-01T16:03:29.903Z,4.00
2023-03-01T16:05:56.977Z,4.00
2023-03-01T16:08:24.630Z,3.90
2023-03-01T16:10:52.659Z,3.80
2023-03-01T16:13:20.453Z,3.80
2023-03-01T16:15:47.751Z,3.80
2023-03-01T16:18:14.829Z,3.70
2023-03-01T16:20:42.385Z,3.70
2023-03-01T16:23:11.831Z,3.60
2023-03-01T16:25:39.968Z,3.60
2023-03-01T16:28:11.151Z,3.50
2023-03-01T16:30:39.173Z,3.50
2023-03-01T16:33:26.953Z,3.50
2023-03-01T16:35:57.238Z,3.40
2023-03-01T16:38:25.690Z,3.40
2023-03-01T16:40:53.263Z,3.30
2023-03-01T16:43:20.308Z,3.30
2023-03-01T16:45:47.705Z,3.20
2023-03-01T16:48:15.070Z,3.10
2023-03-01T16:50:42.149Z,3.10
2023-03-01T16:53:09.767Z,3.10
2023-03-01T16:55:38.626Z,3.00
2023-03-01T16:58:11.967Z,3.00
2023-03-01T17:00:38.887Z,3.00
2023-03-01T17:03:05.784Z,2.90
2023-03-01T17:05:32.765Z,2.80
2023-03-01T17:08:00.886Z,2.80
2023-03-01T17:10:27.877Z,2.80
2023-03-01T17:12:55.905Z,2.80
2023-03-01T17:15:22.844Z,2.80
2023-03-01T17:17:51.891Z,2.80
2023-03-01T17:20:19.581Z,2.80
2023-03-01T17:22:46.659Z,2.70
2023-03-01T17:25:13.766Z,2.70
2023-03-01T17:27:40.912Z,2.70
2023-03-01T17:30:11.467Z,2.60
2023-03-01T17:32:38.607Z,2.60
2023-03-01T17:35:06.198Z,2.60
2023-03-01T17:37:33.084Z,2.60
2023-03-01T17:40:00.180Z,2.50
2023-03-01T17:42:27.201Z,2.50
2023-03-01T17:44:54.585Z,2.50
2023-03-01T17:47:21.497Z,2.50
2023-03-01T17:49:48.463Z,2.50
2023-03-01T17:52:15.382Z,2.50
2023-03-01T17:54:42.396Z,2.50
2023-03-01T17:57:09.379Z,2.50
2023-03-01T17:59:37.613Z,2.50
2023-03-01T18:02:04.743Z,2.50
2023-03-01T18:04:32.592Z,2.50
2023-03-01T18:06:59.942Z,2.60
2023-03-01T18:09:30.666Z,2.60
2023-03-01T18:11:57.681Z,2.60
2023-03-01T18:14:25.993Z,2.60
2023-03-01T18:16:52.931Z,2.60
2023-03-01T18:19:21.219Z,2.60
2023-03-01T18:21:48.198Z,2.60
2023-03-01T18:24:15.229Z,2.60
2023-03-01T18:26:42.341Z,2.60
2023-03-01T18:29:10.696Z,2.50
2023-03-01T18:31:37.753Z,2.60
2023-03-01T18:34:04.674Z,2.60
2023-03-01T18:36:34.861Z,2.50
2023-03-01T18:39:04.016Z,2.50
2023-03-01T18:41:33.006Z,2.50
2023-03-01T18:44:01.344Z,2.40
2023-03-01T18:46:28.596Z,2.40
2023-03-01T18:48:55.972Z,2.40
2023-03-01T18:51:26.232Z,2.40
2023-03-01T18:53:53.816Z,2.40
2023-03-01T18:56:21.077Z,2.40
2023-03-01T18:58:47.969Z,2.40
2023-03-01T19:01:24.133Z,2.30
2023-03-01T19:03:53.218Z,2.30
2023-03-01T19:06:21.025Z,2.30
2023-03-01T19:08:48.716Z,2.20
2023-03-01T19:11:19.235Z,2.20
2023-03-01T19:13:47.893Z,2.30
2023-03-01T19:16:17.890Z,2.20
2023-03-01T19:18:51.445Z,2.30
2023-03-01T19:21:21.413Z,2.20
2023-03-01T19:23:49.300Z,2.20
2023-03-01T19:26:19.297Z,2.20
2023-03-01T19:28:47.106Z,2.10
2023-03-01T19:31:16.956Z,2.10
2023-03-01T19:33:44.462Z,2.10
2023-03-01T19:36:13.222Z,2.10
2023-03-01T19:38:41.612Z,2.10
2023-03-01T19:41:11.357Z,2.10
2023-03-01T19:43:38.443Z,2.10
2023-03-01T19:46:05.458Z,2.00
2023-03-01T19:48:32.475Z,2.10
2023-03-01T19:50:59.659Z,2.00
2023-03-01T19:53:26.933Z,2.00
2023-03-01T19:56:01.050Z,2.00
2023-03-01T19:58:29.304Z,2.00
2023-03-01T20:01:00.854Z,2.00
2023-03-01T20:03:29.157Z,2.10
2023-03-01T20:05:56.792Z,2.00
2023-03-01T20:08:24.361Z,2.00
2023-03-01T20:10:51.734Z,2.00
2023-03-01T20:13:21.294Z,1.90
2023-03-01T20:15:51.819Z,2.00
2023-03-01T20:18:19.201Z,2.00
2023-03-01T20:20:50.004Z,2.00
2023-03-01T20:23:19.301Z,2.00
2023-03-01T20:25:50.663Z,2.00
2023-03-01T20:28:22.897Z,2.00
2023-03-01T20:30:50.107Z,2.00
2023-03-01T20:33:19.803Z,2.00
2023-03-01T20:36:08.630Z,2.00
2023-03-01T20:38:58.309Z,2.00
2023-03-01T20:41:28.971Z,2.00
2023-03-01T20:44:11.719Z,1.90
2023-03-01T20:46:52.182Z,2.00
2023-03-01T20:49:26.272Z,1.90
2023-03-01T20:52:04.063Z,1.90
2023-03-01T20:54:40.834Z,2.00
2023-03-01T20:57:11.136Z,2.00
2023-03-01T20:59:38.429Z,1.90
2023-03-01T21:02:20.335Z,2.00
2023-03-01T21:04:47.740Z,2.00
2023-03-01T21:07:17.400Z,2.10
2023-03-01T21:09:54.243Z,2.10
2023-03-01T21:12:21.535Z,2.20
2023-03-01T21:14:51.108Z,2.20
2023-03-01T21:17:33.036Z,2.30
2023-03-01T21:19:59.946Z,2.20
2023-03-01T21:22:26.856Z,2.30
2023-03-01T21:24:53.905Z,2.30
2023-03-01T21:27:21.315Z,2.30
2023-03-01T21:29:48.383Z,2.40
2023-03-01T21:32:15.445Z,2.50
2023-03-01T21:34:42.600Z,2.50
2023-03-01T21:37:12.904Z,2.50
2023-03-01T21:39:39.873Z,2.50
2023-03-01T21:42:06.772Z,2.60
2023-03-01T21:44:34.892Z,2.60
2023-03-01T21:47:01.816Z,2.60
2023-03-01T21:49:28.712Z,2.50
2023-03-01T21:51:55.887Z,2.50
2023-03-01T21:54:23.123Z,2.50
2023-03-01T21:56:52.469Z,2.50
2023-03-01T21:59:22.108Z,2.50
2023-03-01T22:01:50.489Z,2.60
2023-03-01T22:04:18.234Z,2.60
2023-03-01T22:06:46.692Z,2.60
2023-03-01T22:09:24.074Z,2.60
2023-03-01T22:11:58.850Z,2.60
2023-03-01T22:14:26.614Z,2.60
2023-03-01T22:16:59.317Z,2.60
2023-03-01T22:19:27.561Z,2.60
2023-03-01T22:21:54.721Z,2.60
2023-03-01T22:24:25.448Z,2.60
2023-03-01T22:26:53.634Z,2.70
2023-03-01T22:29:23.503Z,2.70
2023-03-01T22:31:51.290Z,2.70
2023-03-01T22:34:18.814Z,2.70
2023-03-01T22:36:46.117Z,2.70
2023-03-01T22:39:16.150Z,2.70
2023-03-01T22:41:46.025Z,2.70
2023-03-01T22:44:15.590Z,2.70
2023-03-01T22:46:43.627Z,2.70
2023-03-01T22:49:11.529Z,2.70
2023-03-01T22:51:40.818Z,2.80
2023-03-01T22:54:09.291Z,2.80
2023-03-01T22:56:37.744Z,2.80
2023-03-01T22:59:11.014Z,2.70
2023-03-01T23:01:40.213Z,2.80
2023-03-01T23:04:07.522Z,2.90
2023-03-01T23:06:35.724Z,2.90
2023-03-01T23:09:06.967Z,2.90
2023-03-01T23:11:34.148Z,3.00
2023-03-01T23:14:01.117Z,3.10
2023-03-01T23:16:28.099Z,3.10
2023-03-01T23:18:56.102Z,3.10
2023-03-01T23:21:23.324Z,3.10
2023-03-01T23:23:50.585Z,3.10
2023-03-01T23:26:18.623Z,3.10
2023-03-01T23:28:45.653Z,3.10
2023-03-01T23:31:23.061Z,3.20
2023-03-01T23:34:01.219Z,3.20
2023-03-01T23:36:34.164Z,3.20
2023-03-01T23:39:07.088Z,3.20
2023-03-01T23:41:45.409Z,3.20
2023-03-01T23:44:18.236Z,3.20
2023-03-01T23:46:53.992Z,3.20
2023-03-01T23:49:23.614Z,3.20
2023-03-01T23:51:56.527Z,3.20
2023-03-01T23:54:34.609Z,3.30
2023-03-01T23:57:02.234Z,3.30
2023-03-01T23:59:29.436Z,3.20
